Time;durP1;ratioP1;P1;durP2;ratioP2;P2;SDS_P1;SDS_P2;PMS_P1;PMS_P2;Temp;Humidity;BMP_temperature;BMP_pressure;BME280_temperature;BME280_humidity;BME280_pressure;Samples;Min_cycle;Max_cycle;Signal;HPM_P1;HPM_P2
2021/05/19 00:02:59;;;;;;;1.75;1.20;;;;;;;12.78;59.28;100098.06;10306884;28;20042;-69
2021/05/19 00:08:00;;;;;;;1.50;1.40;;;;;;;12.83;59.70;100095.78;10292418;28;20066;-71
2021/05/19 00:13:02;;;;;;;1.80;1.70;;;;;;;12.78;59.72;100104.22;10303689;28;20105;-70
2021/05/19 00:18:05;;;;;;;1.48;1.35;;;;;;;12.78;59.78;100092.72;10285668;28;20050;-69
2021/05/19 00:23:07;;;;;;;2.17;1.70;;;;;;;12.72;60.19;100099.44;10307638;28;20050;-72
2021/05/19 00:28:08;;;;;;;1.73;1.60;;;;;;;12.71;60.05;100098.59;10300431;28;20097;-70
2021/05/19 00:33:10;;;;;;;3.65;1.55;;;;;;;12.68;60.04;100098.03;10282141;28;20069;-70
2021/05/19 00:38:12;;;;;;;1.70;1.60;;;;;;;12.68;60.10;100104.22;10306876;28;20082;-69
2021/05/19 00:43:14;;;;;;;2.63;1.80;;;;;;;12.59;60.92;100114.91;10304418;28;20077;-70
2021/05/19 00:48:17;;;;;;;1.90;1.80;;;;;;;12.53;60.64;100105.63;10287883;28;20058;-69
2021/05/19 00:53:18;;;;;;;1.73;1.63;;;;;;;12.45;60.93;100105.50;10299051;28;20076;-69
2021/05/19 00:58:20;;;;;;;2.10;1.85;;;;;;;12.33;60.89;100110.94;10317066;28;20050;-71
2021/05/19 01:03:22;;;;;;;1.95;1.70;;;;;;;12.26;61.81;100103.63;10306865;28;20150;-68
2021/05/19 01:13:45;;;;;;;2.72;1.80;;;;;;;12.15;62.70;100110.78;10324047;28;20030;-73
2021/05/19 01:18:46;;;;;;;2.67;2.47;;;;;;;12.08;64.01;100122.97;10343779;28;20030;-73
2021/05/19 01:23:48;;;;;;;3.25;3.05;;;;;;;11.91;65.91;100116.44;10310685;28;20050;-69
2021/05/19 01:28:50;;;;;;;3.63;3.33;;;;;;;11.86;66.44;100118.69;10302977;28;20599;-69
2021/05/19 01:33:51;;;;;;;3.92;3.50;;;;;;;11.80;67.24;100116.53;10298470;28;20456;-71
2021/05/19 01:38:53;;;;;;;4.15;3.80;;;;;;;11.70;67.78;100134.34;10282541;28;20519;-71
2021/05/19 01:43:54;;;;;;;5.00;4.22;;;;;;;11.64;68.50;100136.53;10299363;28;20096;-70
2021/05/19 01:48:58;;;;;;;5.30;4.35;;;;;;;11.58;68.70;100137.06;10299410;28;20054;-71
2021/05/19 01:54:00;;;;;;;5.37;4.37;;;;;;;11.43;69.45;100125.91;10286237;28;20050;-70
2021/05/19 01:59:02;;;;;;;6.47;4.88;;;;;;;11.32;69.82;100124.19;10314683;28;20161;-70
2021/05/19 02:04:22;;;;;;;5.25;4.75;;;;;;;11.23;70.20;100132.97;10304055;28;20453;-73
2021/05/19 02:09:25;;;;;;;5.85;5.35;;;;;;;11.17;70.75;100138.81;10315878;28;20116;-69
2021/05/19 02:14:26;;;;;;;7.30;5.18;;;;;;;11.04;71.05;100139.00;10298030;28;20087;-71
2021/05/19 02:19:28;;;;;;;5.68;5.10;;;;;;;10.99;71.72;100145.69;10303596;28;20047;-70
2021/05/19 02:24:29;;;;;;;6.97;5.60;;;;;;;10.96;71.79;100144.97;10301718;28;20552;-69
2021/05/19 02:29:31;;;;;;;5.22;4.72;;;;;;;10.88;71.95;100144.75;10302853;28;20090;-72
2021/05/19 02:34:32;;;;;;;6.07;5.57;;;;;;;10.80;72.19;100141.91;10308230;28;20057;-68
2021/05/19 02:39:35;;;;;;;5.85;5.35;;;;;;;10.80;72.24;100152.56;10310796;28;20047;-69
2021/05/19 02:44:36;;;;;;;5.95;5.45;;;;;;;10.82;72.50;100158.59;10302960;28;20049;-69
2021/05/19 02:49:37;;;;;;;6.63;5.95;;;;;;;10.85;72.30;100150.34;10315326;28;20042;-70
2021/05/19 02:54:39;;;;;;;6.25;5.60;;;;;;;10.96;71.93;100152.13;10356418;28;20057;-71
2021/05/19 02:59:41;;;;;;;7.05;6.35;;;;;;;10.99;71.77;100151.88;10329037;28;20050;-70
2021/05/19 03:04:43;;;;;;;7.00;6.40;;;;;;;10.98;72.16;100155.50;10299183;28;20520;-70
2021/05/19 03:09:44;;;;;;;7.30;6.70;;;;;;;11.00;71.84;100147.38;10304300;28;20050;-70
2021/05/19 03:14:45;;;;;;;6.65;5.95;;;;;;;10.99;72.09;100153.66;10307478;28;20164;-71
2021/05/19 03:19:47;;;;;;;6.97;6.28;;;;;;;10.98;72.24;100171.47;10306297;28;20081;-70
2021/05/19 03:24:49;;;;;;;8.48;6.22;;;;;;;10.99;71.78;100162.53;10291128;28;20042;-69
2021/05/19 03:29:50;;;;;;;6.45;5.90;;;;;;;10.85;72.57;100174.31;10281056;28;20051;-69
2021/05/19 03:34:52;;;;;;;7.10;6.47;;;;;;;10.72;72.98;100165.63;10299514;28;20121;-70
2021/05/19 03:39:53;;;;;;;6.68;6.05;;;;;;;10.64;73.38;100174.25;10341397;28;20054;-70
2021/05/19 03:44:55;;;;;;;8.35;6.97;;;;;;;10.68;73.64;100185.53;10289088;28;20047;-71
2021/05/19 03:49:56;;;;;;;7.70;6.82;;;;;;;10.69;73.42;100187.19;10296401;28;20046;-70
2021/05/19 03:54:58;;;;;;;7.60;6.90;;;;;;;10.72;73.26;100193.13;10285751;28;20132;-71
2021/05/19 04:00:00;;;;;;;7.90;6.55;;;;;;;10.69;73.38;100188.06;10296178;28;20069;-70
2021/05/19 04:05:01;;;;;;;9.75;7.32;;;;;;;10.59;73.70;100179.13;10302432;28;20062;-70
2021/05/19 04:10:03;;;;;;;7.07;6.40;;;;;;;10.64;73.89;100197.38;10302878;28;20046;-70
2021/05/19 04:15:06;;;;;;;7.50;6.80;;;;;;;10.67;73.98;100197.13;10292393;28;20046;-72
2021/05/19 04:20:08;;;;;;;7.75;6.90;;;;;;;10.68;74.28;100218.31;10291342;28;20075;-71
2021/05/19 04:25:10;;;;;;;6.72;6.13;;;;;;;10.66;73.00;100214.06;10285837;28;20512;-70
2021/05/19 04:30:12;;;;;;;7.07;6.47;;;;;;;10.71;73.51;100219.88;10296560;28;20100;-70
2021/05/19 04:35:13;;;;;;;7.97;7.28;;;;;;;10.75;73.81;100216.00;10297981;28;21656;-70
2021/05/19 04:40:15;;;;;;;7.60;6.95;;;;;;;10.74;72.95;100208.97;10283493;28;20144;-70
2021/05/19 04:45:17;;;;;;;7.50;6.80;;;;;;;10.79;72.92;100214.75;10296873;28;20133;-70
2021/05/19 04:50:18;;;;;;;7.28;6.72;;;;;;;10.85;73.04;100219.56;10293555;28;20105;-70
2021/05/19 04:55:19;;;;;;;6.95;6.35;;;;;;;10.80;73.16;100221.78;10295930;28;20583;-70
2021/05/19 05:00:21;;;;;;;7.75;6.72;;;;;;;10.85;72.97;100219.56;10322201;28;20044;-71
2021/05/19 05:05:22;;;;;;;7.65;6.95;;;;;;;10.94;73.26;100213.50;10298318;28;20050;-69
2021/05/19 05:10:28;;;;;;;9.25;6.78;;;;;;;11.00;73.65;100221.94;10289388;28;20054;-70
2021/05/19 05:15:30;;;;;;;7.90;5.78;;;;;;;11.17;73.72;100233.88;10300344;28;20061;-70
2021/05/19 05:20:31;;;;;;;5.03;4.63;;;;;;;11.24;72.66;100227.06;10279183;28;20066;-70
2021/05/19 05:25:33;;;;;;;4.60;4.20;;;;;;;11.34;71.58;100245.78;10293156;28;20101;-71
2021/05/19 05:30:34;;;;;;;4.70;4.30;;;;;;;11.42;72.59;100244.16;10281979;28;20078;-70
2021/05/19 05:36:32;;;;;;;5.47;4.70;;;;;;;11.37;71.74;100266.84;10298941;28;20059;-70
2021/05/19 05:41:33;;;;;;;4.25;3.40;;;;;;;11.46;71.58;100244.75;10258509;28;20062;-69
2021/05/19 05:46:34;;;;;;;4.38;3.80;;;;;;;11.41;71.04;100241.63;10280096;28;20042;-69
2021/05/19 05:51:36;;;;;;;3.50;3.30;;;;;;;11.53;71.59;100245.94;10282226;28;20046;-69
2021/05/19 05:56:40;;;;;;;3.97;3.60;;;;;;;11.68;70.76;100255.28;10307233;28;20050;-70
2021/05/19 06:01:42;;;;;;;4.97;3.53;;;;;;;11.83;70.12;100255.81;10288005;28;20059;-72
2021/05/19 06:06:43;;;;;;;4.40;3.30;;;;;;;11.74;70.05;100263.72;10298231;28;21046;-71
2021/05/19 06:11:45;;;;;;;5.22;3.45;;;;;;;11.81;69.67;100264.91;10299806;28;20077;-75
2021/05/19 06:16:47;;;;;;;3.78;2.92;;;;;;;11.82;69.72;100267.44;10320051;28;20106;-73
2021/05/19 06:21:49;;;;;;;3.38;3.08;;;;;;;11.81;69.24;100264.91;10316866;28;20513;-71
2021/05/19 06:26:54;;;;;;;3.60;2.92;;;;;;;11.90;69.50;100280.13;10296388;28;20120;-71
2021/05/19 06:31:56;;;;;;;2.85;2.65;;;;;;;11.92;68.81;100282.66;10300034;28;20103;-72
2021/05/19 06:36:57;;;;;;;6.28;3.17;;;;;;;11.90;68.64;100282.78;10297694;28;20424;-70
2021/05/19 06:41:59;;;;;;;4.05;3.10;;;;;;;11.93;68.89;100293.22;10297088;28;20049;-74
2021/05/19 06:47:00;;;;;;;4.15;2.97;;;;;;;12.16;68.33;100277.91;10298266;28;20062;-72
2021/05/19 06:52:04;;;;;;;3.53;2.75;;;;;;;12.40;67.74;100287.44;10299658;28;20038;-70
2021/05/19 06:57:05;;;;;;;4.78;3.28;;;;;;;12.68;66.98;100283.13;10293302;28;20303;-73
2021/05/19 07:02:06;;;;;;;5.22;3.53;;;;;;;12.85;66.74;100289.66;10305161;28;20046;-69
2021/05/19 07:07:08;;;;;;;5.18;3.38;;;;;;;12.98;65.07;100286.72;10298559;28;20077;-70
2021/05/19 07:12:09;;;;;;;3.70;3.40;;;;;;;13.27;66.16;100289.44;10311473;28;20045;-71
2021/05/19 07:17:11;;;;;;;4.50;3.47;;;;;;;13.42;63.54;100289.91;10318482;28;20537;-69
2021/05/19 07:22:12;;;;;;;4.40;3.67;;;;;;;13.56;63.54;100285.09;10307180;28;20390;-72
2021/05/19 07:27:14;;;;;;;5.07;3.22;;;;;;;13.57;61.54;100294.78;10315769;28;20614;-70
2021/05/19 07:32:15;;;;;;;4.22;3.08;;;;;;;13.59;63.07;100291.00;10319870;28;20058;-69
2021/05/19 07:37:17;;;;;;;4.72;2.95;;;;;;;13.51;61.65;100298.03;10315963;28;20064;-69
2021/05/19 07:42:19;;;;;;;4.63;3.40;;;;;;;13.54;60.71;100303.97;10338580;28;20081;-70
2021/05/19 07:47:21;;;;;;;3.78;3.35;;;;;;;13.41;61.04;100301.56;10351483;28;20102;-72
2021/05/19 07:52:22;;;;;;;4.13;3.72;;;;;;;13.56;61.44;100303.81;10333095;28;20597;-69
2021/05/19 08:02:22;;;;;;;3.75;3.45;;;;;;;13.93;60.14;100295.03;10322118;28;20321;-73
2021/05/19 08:07:22;;;;;;;3.90;2.80;;;;;;;14.19;60.17;100287.22;10318239;28;20042;-70
2021/05/19 08:12:23;;;;;;;2.80;2.60;;;;;;;14.47;59.01;100285.41;10315078;28;20582;-69
2021/05/19 08:17:23;;;;;;;2.63;2.10;;;;;;;14.93;57.66;100290.00;10318748;28;20165;-69
2021/05/19 08:22:24;;;;;;;3.45;3.08;;;;;;;15.21;55.80;100296.16;10310965;28;20030;-73
2021/05/19 08:27:26;;;;;;;5.55;2.92;;;;;;;15.04;55.72;100287.06;10321180;28;20687;-70
2021/05/19 08:32:27;;;;;;;3.55;3.22;;;;;;;15.66;53.98;100289.00;10297694;28;20078;-69
2021/05/19 08:37:28;;;;;;;3.45;2.75;;;;;;;16.28;51.70;100293.47;10300830;28;20176;-68
2021/05/19 08:42:33;;;;;;;2.92;2.08;;;;;;;16.39;52.60;100285.09;10316231;28;21720;-68
2021/05/19 08:47:37;;;;;;;3.70;2.10;;;;;;;16.30;51.38;100286.06;10308470;28;20479;-69
2021/05/19 08:52:41;;;;;;;2.58;2.28;;;;;;;16.05;51.10;100283.28;10308916;28;20129;-70
2021/05/19 08:57:43;;;;;;;4.20;2.55;;;;;;;16.41;50.97;100280.44;10304387;28;20134;-72
2021/05/19 09:03:06;;;;;;;2.45;2.25;;;;;;;16.50;51.20;100274.09;10315433;28;20050;-69
2021/05/19 09:08:08;;;;;;;3.22;2.45;;;;;;;16.40;50.25;100268.00;10304158;28;20046;-71
2021/05/19 09:13:33;;;;;;;3.70;2.60;;;;;;;16.54;48.89;100264.72;10310179;28;20950;-70
2021/05/19 09:18:54;;;;;;;1.88;1.70;;;;;;;16.96;50.37;100258.47;10314719;28;20129;-70
2021/05/19 09:23:56;;;;;;;1.90;1.70;;;;;;;17.77;49.45;100255.13;10299797;28;20046;-67
2021/05/19 09:29:20;;;;;;;3.08;1.70;;;;;;;18.02;46.73;100247.88;10316130;28;20077;-69
2021/05/19 09:34:29;;;;;;;;;;;;;;;17.80;45.04;100249.41;10298883;28;20066;-69
2021/05/19 09:40:09;;;;;;;2.45;2.00;;;;;;;17.76;46.13;100237.28;10311645;28;20014;-70
2021/05/19 09:45:16;;;;;;;2.85;2.28;;;;;;;18.17;46.17;100240.75;10308108;28;20400;-69
2021/05/19 09:50:22;;;;;;;3.25;1.75;;;;;;;17.89;44.75;100236.75;10310199;28;20050;-68
2021/05/19 09:55:24;;;;;;;2.58;1.80;;;;;;;17.88;44.54;100222.47;10299919;28;20239;-68
2021/05/19 10:00:28;;;;;;;3.65;1.60;;;;;;;18.08;43.72;100224.81;10292399;28;20051;-70
2021/05/19 10:05:36;;;;;;;1.98;1.20;;;;;;;17.67;45.17;100218.47;10289309;28;20104;-71
2021/05/19 10:10:38;;;;;;;2.22;1.40;;;;;;;17.10;47.18;100231.94;10289241;28;20105;-70
2021/05/19 10:15:40;;;;;;;2.15;0.80;;;;;;;16.63;48.39;100229.78;10288466;28;20253;-71
2021/05/19 10:20:43;;;;;;;1.67;1.10;;;;;;;16.82;48.14;100228.66;10294228;28;20097;-69
2021/05/19 10:25:45;;;;;;;3.37;1.53;;;;;;;16.53;46.22;100220.03;10298953;28;20050;-73
2021/05/19 10:30:51;;;;;;;2.85;1.52;;;;;;;16.42;49.07;100228.38;10302473;28;20076;-68
2021/05/19 10:35:56;;;;;;;2.13;1.70;;;;;;;17.39;50.51;100225.22;10296392;28;20133;-70
2021/05/19 10:41:03;;;;;;;4.75;1.60;;;;;;;17.78;48.86;100208.34;10293988;28;20064;-67
2021/05/19 10:46:04;;;;;;;3.13;1.52;;;;;;;17.84;49.74;100210.34;10295412;28;20059;-70
2021/05/19 10:51:42;;;;;;;2.53;1.77;;;;;;;18.64;46.88;100208.53;10293909;28;20144;-70
2021/05/19 11:02:04;;;;;;;1.92;1.10;;;;;;;19.90;42.25;100195.59;10302447;28;20215;-69
2021/05/19 11:07:06;;;;;;;1.92;0.95;;;;;;;19.57;41.72;100188.63;10306102;28;20054;-70
2021/05/19 11:12:18;;;;;;;1.13;0.65;;;;;;;19.40;39.07;100187.94;10305151;28;20181;-72
2021/05/19 11:17:34;;;;;;;1.30;0.38;;;;;;;19.54;36.22;100171.97;10303898;28;20133;-68
2021/05/19 11:22:36;;;;;;;2.05;0.60;;;;;;;19.73;35.41;100166.03;10300055;28;20130;-68
2021/05/19 11:27:37;;;;;;;1.10;0.38;;;;;;;20.30;32.86;100161.00;10300992;28;20182;-71
2021/05/19 11:32:39;;;;;;;1.83;0.60;;;;;;;20.92;34.99;100153.34;10289039;28;20069;-69
2021/05/19 11:37:57;;;;;;;1.73;0.75;;;;;;;20.68;37.42;100154.56;10293483;28;20120;-74
2021/05/19 11:42:58;;;;;;;1.30;0.50;;;;;;;20.51;34.69;100162.03;10302053;28;20058;-69
2021/05/19 11:48:01;;;;;;;0.57;0.40;;;;;;;20.99;32.39;100143.44;10292422;28;20429;-70
2021/05/19 11:53:09;;;;;;;0.75;0.30;;;;;;;21.33;32.07;100141.81;10299118;28;20112;-68
2021/05/19 11:58:21;;;;;;;2.25;0.68;;;;;;;21.41;33.06;100133.56;10294095;28;20081;-70
2021/05/19 12:03:24;;;;;;;2.13;0.43;;;;;;;21.26;33.88;100133.66;10293358;28;20125;-69
2021/05/19 12:08:35;;;;;;;0.75;0.35;;;;;;;21.39;31.10;100137.50;10293587;28;20077;-68
2021/05/19 12:13:39;;;;;;;2.53;0.50;;;;;;;20.83;30.75;100133.72;10292475;28;20049;-70
2021/05/19 12:19:10;;;;;;;1.02;0.30;;;;;;;20.64;31.86;100125.19;10298528;28;20552;-69
2021/05/19 12:24:14;;;;;;;1.80;0.68;;;;;;;20.91;32.91;100136.28;10297761;28;20133;-72
2021/05/19 12:29:40;;;;;;;1.35;0.40;;;;;;;20.70;30.66;100128.16;10297966;28;20476;-68
2021/05/19 12:34:44;;;;;;;0.30;0.20;;;;;;;20.07;32.49;100134.09;10290181;28;20137;-69
2021/05/19 12:39:45;;;;;;;1.35;0.40;;;;;;;19.52;33.65;100125.44;10298119;28;20062;-68
2021/05/19 12:44:57;;;;;;;0.95;0.30;;;;;;;19.27;33.56;100124.84;10286798;28;20154;-67
2021/05/19 12:50:02;;;;;;;1.05;0.40;;;;;;;19.63;33.37;100114.16;10296224;28;20038;-72
2021/05/19 12:55:06;;;;;;;1.33;0.57;;;;;;;19.62;33.46;100120.56;10292235;28;20109;-68
2021/05/19 13:00:12;;;;;;;1.98;0.40;;;;;;;19.50;32.88;100117.53;10295497;28;20066;-68
2021/05/19 13:05:21;;;;;;;2.00;0.30;;;;;;;19.10;33.25;100114.19;10290046;28;20578;-68
2021/05/19 13:16:13;;;;;;;2.92;0.75;;;;;;;20.01;33.36;100113.22;10297173;28;20188;-73
2021/05/19 13:26:42;;;;;;;1.00;0.30;;;;;;;20.27;30.01;100108.13;10296220;28;20066;-68
2021/05/19 13:31:52;;;;;;;1.30;0.30;;;;;;;19.98;31.16;100103.63;10295979;28;20441;-68
2021/05/19 13:36:54;;;;;;;0.43;0.20;;;;;;;20.10;32.19;100093.16;10296373;28;20510;-68
2021/05/19 13:41:58;;;;;;;0.88;0.28;;;;;;;20.38;30.16;100090.59;10295966;28;20050;-68
2021/05/19 13:47:00;;;;;;;0.88;0.20;;;;;;;20.44;31.06;100089.81;10293329;28;20066;-67
2021/05/19 13:52:09;;;;;;;2.08;0.43;;;;;;;20.23;30.41;100087.91;10290282;28;20186;-68
2021/05/19 13:57:12;;;;;;;0.60;0.20;;;;;;;20.01;30.61;100089.78;10296479;28;20038;-68
2021/05/19 14:02:13;;;;;;;1.23;0.27;;;;;;;20.15;30.32;100088.06;10298070;28;20126;-68
2021/05/19 14:07:15;;;;;;;1.88;0.40;;;;;;;20.33;30.13;100084.06;10313359;28;20196;-73
2021/05/19 14:12:29;;;;;;;1.67;0.30;;;;;;;20.28;30.32;100092.75;10302931;28;20196;-67
2021/05/19 14:27:57;;;;;;;4.50;0.68;;;;;;;19.74;33.99;100091.25;10328231;28;20053;-69
2021/05/19 14:32:58;;;;;;;2.15;0.60;;;;;;;19.58;34.00;100100.38;10319999;28;20536;-68
2021/05/19 14:49:15;;;;;;;2.50;0.50;;;;;;;18.09;39.70;100126.81;10283872;28;20049;-69
2021/05/19 15:04:06;;;;;;;1.60;0.60;;;;;;;18.28;38.88;100142.53;10316180;28;20155;-67
2021/05/19 15:09:17;;;;;;;2.53;0.55;;;;;;;18.54;38.79;100144.09;10313285;28;20056;-70
2021/05/19 15:14:18;;;;;;;3.28;0.40;;;;;;;18.64;39.82;100141.97;10313931;28;20086;-72
2021/05/19 15:19:21;;;;;;;1.80;0.50;;;;;;;18.18;41.07;100156.25;10312279;28;20182;-69
2021/05/19 15:24:22;;;;;;;3.03;0.63;;;;;;;18.14;44.50;100148.69;10314861;28;20117;-71
2021/05/19 15:29:24;;;;;;;0.60;0.60;;;;;;;17.71;44.54;100154.34;10308769;28;20061;-72
2021/05/19 15:34:25;;;;;;;0.95;0.50;;;;;;;17.95;43.46;100153.47;10314024;28;20140;-69
2021/05/19 15:39:27;;;;;;;1.48;0.60;;;;;;;18.26;43.20;100152.66;10307515;28;20047;-71
2021/05/19 15:44:28;;;;;;;1.05;0.30;;;;;;;18.47;42.21;100151.22;10305020;28;20057;-70
2021/05/19 15:49:30;;;;;;;2.85;1.02;;;;;;;18.28;41.74;100150.63;10310732;28;20485;-69
2021/05/19 15:54:31;;;;;;;0.52;0.30;;;;;;;18.02;41.87;100130.22;10298384;28;20508;-69
2021/05/19 15:59:33;;;;;;;3.95;0.60;;;;;;;18.45;41.07;100147.84;10307056;28;20288;-67
2021/05/19 16:04:42;;;;;;;2.83;0.75;;;;;;;18.23;38.95;100147.63;10296377;28;20532;-69
2021/05/19 16:09:43;;;;;;;2.30;0.40;;;;;;;17.78;39.05;100143.75;10298153;28;20050;-68
2021/05/19 16:14:45;;;;;;;1.27;0.40;;;;;;;17.40;39.47;100152.41;10297868;28;20077;-68
2021/05/19 16:19:46;;;;;;;3.50;0.95;;;;;;;17.23;40.68;100140.81;10298582;28;20149;-68
2021/05/19 16:24:47;;;;;;;4.25;0.50;;;;;;;17.32;40.81;100138.97;10295789;28;20553;-74
2021/05/19 16:35:37;;;;;;;1.60;0.63;;;;;;;17.29;41.75;100129.41;10282758;28;20901;-69
2021/05/19 16:40:39;;;;;;;1.00;0.40;;;;;;;17.10;42.01;100130.59;10291309;28;20042;-69
2021/05/19 16:45:41;;;;;;;5.40;0.70;;;;;;;17.09;43.78;100125.38;10296224;28;20125;-72
2021/05/19 16:50:42;;;;;;;1.48;0.52;;;;;;;17.13;42.14;100141.00;10298638;28;20050;-71
2021/05/19 16:55:44;;;;;;;3.35;0.65;;;;;;;17.07;42.80;100144.38;10297387;28;20061;-72
2021/05/19 17:00:45;;;;;;;1.48;0.98;;;;;;;17.08;42.48;100153.25;10293588;28;20050;-71
2021/05/19 17:05:47;;;;;;;1.08;0.70;;;;;;;16.75;42.73;100154.06;10292977;28;20203;-73
2021/05/19 17:10:50;;;;;;;1.60;0.70;;;;;;;16.51;42.88;100157.53;10296322;28;20058;-73
2021/05/19 17:15:52;;;;;;;1.52;0.80;;;;;;;16.42;42.60;100175.50;10296121;28;20053;-70
2021/05/19 17:20:53;;;;;;;1.25;0.47;;;;;;;16.23;42.04;100179.28;10295475;28;20050;-72
2021/05/19 17:25:55;;;;;;;2.17;0.40;;;;;;;16.19;42.84;100185.16;10294330;28;20433;-71
2021/05/19 17:30:56;;;;;;;0.82;0.45;;;;;;;16.17;44.15;100190.69;10287307;28;20074;-70
2021/05/19 17:35:58;;;;;;;1.45;0.50;;;;;;;16.11;45.19;100207.44;10286297;28;20050;-71
2021/05/19 17:40:59;;;;;;;2.88;0.80;;;;;;;15.91;46.33;100206.81;10290343;28;20046;-70
2021/05/19 17:46:01;;;;;;;1.95;0.40;;;;;;;15.81;45.98;100204.25;10292538;28;20066;-73
2021/05/19 17:51:03;;;;;;;1.35;0.60;;;;;;;15.81;46.19;100220.38;10306856;28;20706;-69
2021/05/19 17:56:05;;;;;;;1.30;0.40;;;;;;;15.67;47.08;100227.13;10295940;28;20074;-71
2021/05/19 18:01:06;;;;;;;1.33;0.40;;;;;;;15.62;47.90;100221.38;10294329;28;20132;-71
2021/05/19 18:06:07;;;;;;;1.48;0.65;;;;;;;15.63;48.50;100211.50;10291954;28;20125;-69
2021/05/19 18:11:09;;;;;;;2.78;0.50;;;;;;;15.58;48.81;100219.16;10294316;28;20753;-72
2021/05/19 18:16:10;;;;;;;0.98;0.60;;;;;;;15.47;48.59;100213.06;10285487;28;20435;-71
2021/05/19 18:21:13;;;;;;;0.82;0.40;;;;;;;15.33;48.78;100222.50;10295574;28;20096;-73
2021/05/19 18:26:14;;;;;;;1.15;0.40;;;;;;;15.18;48.82;100214.16;10303581;28;20061;-70
2021/05/19 18:31:26;;;;;;;1.25;0.50;;;;;;;15.29;48.83;100228.34;10305419;28;20105;-72
2021/05/19 18:36:28;;;;;;;1.30;0.60;;;;;;;15.16;48.67;100226.91;10294379;28;21507;-71
2021/05/19 18:41:29;;;;;;;1.13;0.40;;;;;;;15.13;48.18;100226.34;10291037;28;20061;-71
2021/05/19 18:46:31;;;;;;;0.80;0.50;;;;;;;15.12;48.05;100220.16;10294602;28;20058;-70
2021/05/19 18:51:32;;;;;;;1.67;0.50;;;;;;;15.07;47.95;100235.00;10288230;28;20262;-70
2021/05/19 18:56:39;;;;;;;2.33;0.90;;;;;;;14.95;48.22;100239.75;10287548;28;20086;-72
2021/05/19 19:01:40;;;;;;;1.50;0.73;;;;;;;14.90;48.84;100242.06;10300019;28;20054;-73
2021/05/19 19:06:42;;;;;;;2.22;0.77;;;;;;;14.59;50.83;100255.75;10299588;28;20074;-71
2021/05/19 19:11:51;;;;;;;1.50;0.50;;;;;;;14.66;51.68;100272.94;10304061;28;20161;-70
2021/05/19 19:16:53;;;;;;;0.93;0.68;;;;;;;14.32;52.48;100279.69;10313877;28;20038;-70
2021/05/19 19:21:55;;;;;;;1.02;0.60;;;;;;;14.21;52.61;100289.75;10316475;28;20086;-70
2021/05/19 19:26:59;;;;;;;0.90;0.70;;;;;;;14.24;52.77;100294.81;10311427;28;22745;-70
2021/05/19 19:32:01;;;;;;;;;;;;;;;14.25;52.33;100309.88;10300541;28;20050;-70
2021/05/19 19:37:03;;;;;;;1.00;0.65;;;;;;;13.99;52.38;100310.53;10316929;28;20014;-70
2021/05/19 19:42:10;;;;;;;0.95;0.57;;;;;;;14.04;52.77;100302.06;10305198;28;20139;-72
2021/05/19 19:47:12;;;;;;;0.73;0.30;;;;;;;14.01;51.86;100310.38;10302317;28;20046;-72
2021/05/19 19:52:13;;;;;;;1.27;0.68;;;;;;;13.94;53.36;100320.81;10295843;28;20678;-71
2021/05/19 19:57:19;;;;;;;1.08;0.68;;;;;;;13.82;53.71;100332.66;10305583;28;20042;-70
2021/05/19 20:02:32;;;;;;;0.93;0.50;;;;;;;13.94;53.51;100344.88;10315668;28;20058;-70
2021/05/19 20:07:33;;;;;;;1.80;0.50;;;;;;;13.88;53.36;100348.97;10316004;28;20046;-70
2021/05/19 20:12:35;;;;;;;2.35;0.52;;;;;;;13.77;54.00;100352.66;10310010;28;20101;-70
2021/05/19 20:17:37;;;;;;;0.95;0.40;;;;;;;13.74;54.46;100352.94;10291741;28;20468;-71
2021/05/19 20:22:40;;;;;;;1.02;0.40;;;;;;;13.72;54.55;100346.91;10306435;28;20058;-70
2021/05/19 20:27:42;;;;;;;1.07;0.83;;;;;;;13.75;54.46;100353.78;10314581;28;20050;-70
2021/05/19 20:32:48;;;;;;;1.52;0.30;;;;;;;13.85;54.58;100364.47;10313115;28;20058;-72
2021/05/19 20:37:50;;;;;;;0.70;0.30;;;;;;;13.75;55.04;100365.34;10307265;28;20085;-70
2021/05/19 20:42:51;;;;;;;0.93;0.38;;;;;;;13.63;55.14;100361.13;10300872;28;20138;-71
2021/05/19 20:47:53;;;;;;;1.20;0.70;;;;;;;13.52;55.61;100377.28;10301039;28;20168;-71
2021/05/19 20:52:54;;;;;;;1.70;0.70;;;;;;;13.64;56.49;100378.84;10295729;28;20058;-72
2021/05/19 20:58:06;;;;;;;0.65;0.57;;;;;;;13.59;58.66;100381.09;10315576;28;20042;-71
2021/05/19 21:03:08;;;;;;;1.40;0.60;;;;;;;13.53;60.75;100379.00;10306745;28;20089;-71
2021/05/19 21:08:10;;;;;;;1.80;0.70;;;;;;;13.50;63.44;100381.94;10306957;28;20070;-70
2021/05/19 21:13:11;;;;;;;1.73;0.70;;;;;;;13.54;65.12;100392.22;10298287;28;20089;-69
2021/05/19 21:18:12;;;;;;;1.23;1.02;;;;;;;13.59;65.70;100386.44;10302625;28;20170;-68
2021/05/19 21:23:14;;;;;;;1.13;0.80;;;;;;;13.68;66.40;100401.66;10298766;28;20085;-70
2021/05/19 21:28:15;;;;;;;2.20;0.80;;;;;;;13.75;66.41;100402.78;10288200;28;20046;-69
2021/05/19 21:33:17;;;;;;;1.35;0.93;;;;;;;13.73;66.69;100414.59;10292739;28;20125;-70
2021/05/19 21:38:18;;;;;;;3.10;2.42;;;;;;;13.76;66.32;100415.16;10296276;28;20043;-70
2021/05/19 21:43:20;;;;;;;4.47;4.07;;;;;;;13.76;66.66;100422.34;10282580;28;20057;-70
2021/05/19 21:48:22;;;;;;;2.38;2.08;;;;;;;13.83;66.75;100425.31;10315115;28;20113;-70
2021/05/19 21:53:24;;;;;;;2.40;0.80;;;;;;;13.79;65.23;100416.72;10299242;28;20101;-70
2021/05/19 21:58:25;;;;;;;1.77;0.63;;;;;;;13.34;63.65;100419.91;10302640;28;20074;-70
2021/05/19 22:03:28;;;;;;;0.63;0.43;;;;;;;13.09;65.88;100425.56;10319601;28;20331;-70
2021/05/19 22:08:30;;;;;;;1.05;0.50;;;;;;;13.29;64.71;100433.66;10317444;28;20078;-71
2021/05/19 22:13:31;;;;;;;1.52;0.65;;;;;;;13.34;63.87;100420.75;10316428;28;20061;-70
2021/05/19 22:28:51;;;;;;;1.98;0.90;;;;;;;13.46;60.90;100447.38;10310547;28;20050;-70
2021/05/19 22:33:52;;;;;;;0.82;0.47;;;;;;;13.52;61.36;100452.16;10290818;28;20104;-70
2021/05/19 22:38:54;;;;;;;1.17;0.43;;;;;;;13.40;61.64;100456.78;10300472;28;20096;-71
2021/05/19 22:43:55;;;;;;;0.47;0.30;;;;;;;13.50;61.34;100446.97;10301267;28;20073;-69
2021/05/19 22:48:57;;;;;;;0.45;0.30;;;;;;;13.55;60.28;100443.88;10303114;28;20074;-69
2021/05/19 22:54:02;;;;;;;0.38;0.30;;;;;;;13.38;59.74;100438.19;10320796;28;20055;-69
2021/05/19 22:59:05;;;;;;;0.80;0.15;;;;;;;13.37;59.87;100444.53;10343749;28;20058;-71
2021/05/19 23:04:06;;;;;;;1.65;0.40;;;;;;;13.31;60.93;100447.72;10304933;28;20050;-69
2021/05/19 23:09:07;;;;;;;0.80;0.52;;;;;;;13.26;62.02;100458.81;10303724;28;20466;-68
2021/05/19 23:14:09;;;;;;;1.23;0.73;;;;;;;13.09;63.79;100452.31;10292150;28;20081;-69
2021/05/19 23:19:10;;;;;;;1.13;0.80;;;;;;;13.16;65.37;100446.41;10298313;28;20101;-69
2021/05/19 23:24:12;;;;;;;2.00;0.80;;;;;;;13.11;65.88;100448.66;10292091;28;20046;-69
2021/05/19 23:29:14;;;;;;;1.13;0.50;;;;;;;13.07;66.20;100448.91;10300538;28;20046;-69
2021/05/19 23:34:15;;;;;;;1.38;0.80;;;;;;;13.14;65.63;100448.38;10305690;28;20058;-69
2021/05/19 23:39:16;;;;;;;1.98;0.60;;;;;;;13.04;65.73;100446.50;10302580;28;20042;-68
2021/05/19 23:44:20;;;;;;;1.20;0.88;;;;;;;12.87;66.65;100449.81;10299814;28;20129;-69
2021/05/19 23:49:21;;;;;;;2.75;0.80;;;;;;;12.79;67.95;100452.28;10281715;28;20054;-69
2021/05/19 23:54:25;;;;;;;2.40;1.02;;;;;;;12.96;67.36;100446.34;10284446;28;20097;-68
2021/05/19 23:59:29;;;;;;;2.30;1.27;;;;;;;12.96;67.83;100450.84;10281992;28;20065;-69
